Time;durP1;ratioP1;P1;durP2;ratioP2;P2;SDS_P1;SDS_P2;PMS_P1;PMS_P2;Temp;Humidity;BMP_temperature;BMP_pressure;BME280_temperature;BME280_humidity;BME280_pressure;Samples;Min_cycle;Max_cycle;Signal;HPM_P1;HPM_P2
2023/10/26 00:01:54;;;;;;;8.05;4.55;;;13.80;99.90;;;;;;5089726;28;20051;-79
2023/10/26 00:04:20;;;;;;;8.35;4.00;;;13.70;99.90;;;;;;5091009;28;20031;-80
2023/10/26 00:06:46;;;;;;;6.97;3.75;;;13.70;99.90;;;;;;5090960;28;20024;-79
2023/10/26 00:09:11;;;;;;;5.43;3.13;;;13.60;99.90;;;;;;5089632;28;20115;-79
2023/10/26 00:11:37;;;;;;;11.85;4.18;;;13.50;99.90;;;;;;5090308;28;20044;-77
2023/10/26 00:14:03;;;;;;;6.90;2.80;;;13.70;99.90;;;;;;5090357;28;20400;-77
2023/10/26 00:16:28;;;;;;;6.20;2.72;;;13.60;99.90;;;;;;5090902;28;20077;-78
2023/10/26 00:18:55;;;;;;;6.22;2.67;;;13.60;99.90;;;;;;5090819;28;20036;-78
2023/10/26 00:21:21;;;;;;;4.03;2.25;;;13.50;99.90;;;;;;5090383;28;20519;-79
2023/10/26 00:23:46;;;;;;;4.28;2.50;;;13.40;99.90;;;;;;5089246;28;20024;-76
2023/10/26 00:26:12;;;;;;;;;;;13.40;99.90;;;;;;5089886;28;20077;-77
2023/10/26 00:28:37;;;;;;;13.98;5.07;;;13.50;99.90;;;;;;5089178;28;20328;-77
2023/10/26 00:31:03;;;;;;;11.15;5.43;;;13.40;99.90;;;;;;5090736;28;20028;-77
2023/10/26 00:33:29;;;;;;;15.13;7.93;;;13.40;99.90;;;;;;5090517;28;20577;-80
2023/10/26 00:35:55;;;;;;;20.48;9.88;;;13.40;99.90;;;;;;5090473;28;20055;-77
2023/10/26 00:38:21;;;;;;;16.70;8.02;;;13.50;99.90;;;;;;5090511;28;20060;-78
2023/10/26 00:40:47;;;;;;;13.30;5.95;;;13.50;99.90;;;;;;5089015;28;20105;-77
2023/10/26 00:43:27;;;;;;;10.95;6.38;;;13.40;99.90;;;;;;5090350;28;20020;-77
2023/10/26 00:45:53;;;;;;;11.70;4.97;;;13.50;99.90;;;;;;5088933;28;20038;-77
2023/10/26 00:48:20;;;;;;;10.43;5.78;;;13.50;99.90;;;;;;5088997;28;20108;-77
2023/10/26 00:50:47;;;;;;;8.88;4.93;;;13.40;99.90;;;;;;5090243;28;20040;-77
2023/10/26 00:53:14;;;;;;;6.25;3.33;;;13.60;99.90;;;;;;5088741;28;20044;-77
2023/10/26 00:55:41;;;;;;;9.43;3.58;;;13.50;99.90;;;;;;5088660;28;20077;-79
2023/10/26 00:58:08;;;;;;;8.57;4.28;;;13.40;99.90;;;;;;5090101;28;20542;-78
2023/10/26 01:00:34;;;;;;;10.20;4.63;;;13.40;99.90;;;;;;5089109;28;20166;-78
2023/10/26 01:03:00;;;;;;;4.57;2.40;;;13.40;99.90;;;;;;5089760;28;20560;-78
2023/10/26 01:05:25;;;;;;;6.57;2.78;;;13.50;99.90;;;;;;5089895;28;20492;-79
2023/10/26 01:07:51;;;;;;;6.65;2.65;;;13.50;99.90;;;;;;5089673;28;20039;-78
2023/10/26 01:10:17;;;;;;;8.95;2.63;;;13.40;99.90;;;;;;5088406;28;20028;-78
2023/10/26 01:12:42;;;;;;;6.93;2.78;;;13.40;99.90;;;;;;5089881;28;20028;-77
2023/10/26 01:15:08;;;;;;;10.40;3.10;;;13.30;99.90;;;;;;5089886;28;20028;-76
2023/10/26 01:17:35;;;;;;;8.73;2.70;;;13.30;99.90;;;;;;5088441;28;20506;-78
2023/10/26 01:20:01;;;;;;;4.18;2.58;;;13.20;99.90;;;;;;5088552;28;20028;-77
2023/10/26 01:22:30;;;;;;;5.78;2.60;;;13.20;99.90;;;;;;5088697;28;20035;-77
2023/10/26 01:24:56;;;;;;;6.20;2.30;;;13.20;99.90;;;;;;5087939;28;20133;-78
2023/10/26 01:27:22;;;;;;;5.07;3.03;;;13.20;99.90;;;;;;5088409;28;20045;-77
2023/10/26 01:29:47;;;;;;;;;;;13.20;99.90;;;;;;5088630;28;20020;-77
2023/10/26 01:32:13;;;;;;;10.35;2.65;;;13.20;99.90;;;;;;5089446;28;20384;-77
2023/10/26 01:34:39;;;;;;;7.15;2.75;;;13.10;99.90;;;;;;5087925;28;20082;-76
2023/10/26 01:37:05;;;;;;;8.05;2.55;;;13.10;99.90;;;;;;5088267;28;20385;-77
2023/10/26 01:39:31;;;;;;;4.50;2.22;;;13.10;99.90;;;;;;5089674;28;20063;-76
2023/10/26 01:41:57;;;;;;;4.25;2.05;;;13.00;99.90;;;;;;5089763;28;20470;-76
2023/10/26 01:44:23;;;;;;;5.70;2.65;;;13.00;99.90;;;;;;5089568;28;20095;-76
2023/10/26 01:46:48;;;;;;;;;;;12.90;99.90;;;;;;5089701;28;20029;-77
2023/10/26 01:49:14;;;;;;;7.70;2.28;;;12.90;99.90;;;;;;5088338;28;19911;-77
2023/10/26 01:51:40;;;;;;;4.30;2.50;;;13.00;99.90;;;;;;5088206;28;20035;-76
2023/10/26 01:54:05;;;;;;;6.75;3.08;;;13.00;99.90;;;;;;5089432;28;20067;-76
2023/10/26 01:56:31;;;;;;;3.83;2.15;;;13.00;99.90;;;;;;5089170;28;20040;-76
2023/10/26 01:58:57;;;;;;;6.20;2.15;;;13.00;99.90;;;;;;5088158;28;20055;-77
2023/10/26 02:01:26;;;;;;;12.00;3.17;;;13.00;99.90;;;;;;5089416;28;20793;-76
2023/10/26 02:03:52;;;;;;;12.60;4.47;;;12.90;99.90;;;;;;5088235;28;20480;-76
2023/10/26 02:06:18;;;;;;;8.70;3.05;;;12.90;99.90;;;;;;5089615;28;20032;-76
2023/10/26 02:08:43;;;;;;;6.10;2.55;;;12.80;99.90;;;;;;5088174;28;20020;-76
2023/10/26 02:11:09;;;;;;;4.25;2.33;;;12.80;99.90;;;;;;5088756;28;20473;-76
2023/10/26 02:13:35;;;;;;;6.40;2.83;;;12.80;99.90;;;;;;5089070;28;20588;-76
2023/10/26 02:16:01;;;;;;;4.75;2.25;;;12.90;99.90;;;;;;5088277;28;20567;-76
2023/10/26 02:18:28;;;;;;;8.65;2.92;;;12.80;99.90;;;;;;5088077;28;20062;-76
2023/10/26 02:20:54;;;;;;;6.43;2.95;;;12.80;99.90;;;;;;5089335;28;20024;-76
2023/10/26 02:23:21;;;;;;;7.45;3.03;;;12.80;99.90;;;;;;5088998;28;20036;-76
2023/10/26 02:25:47;;;;;;;9.52;2.65;;;12.80;99.90;;;;;;5087910;28;20051;-76
2023/10/26 02:28:15;;;;;;;15.05;2.35;;;12.80;99.90;;;;;;5089165;28;20484;-76
2023/10/26 02:30:43;;;;;;;11.07;2.88;;;12.80;99.90;;;;;;5087913;28;20035;-76
2023/10/26 02:33:09;;;;;;;6.93;2.88;;;12.80;99.90;;;;;;5088837;28;20051;-77
2023/10/26 02:35:34;;;;;;;9.85;2.95;;;12.80;99.90;;;;;;5089876;28;20017;-77
2023/10/26 02:38:00;;;;;;;6.63;3.22;;;12.80;99.90;;;;;;5092448;28;20416;-77
2023/10/26 02:40:26;;;;;;;7.50;2.80;;;12.80;99.90;;;;;;5091293;28;20617;-76
2023/10/26 02:42:51;;;;;;;7.93;2.88;;;12.80;99.90;;;;;;5092664;28;20036;-77
2023/10/26 02:45:17;;;;;;;7.72;2.90;;;12.70;99.90;;;;;;5091651;28;20500;-76
2023/10/26 02:47:43;;;;;;;9.43;2.10;;;12.70;99.90;;;;;;5090675;28;20074;-76
2023/10/26 02:50:09;;;;;;;4.45;2.50;;;12.60;99.90;;;;;;5092376;28;20121;-79
2023/10/26 02:52:36;;;;;;;5.53;2.60;;;12.60;99.90;;;;;;5090989;28;20028;-77
2023/10/26 02:55:01;;;;;;;6.53;3.53;;;12.60;99.90;;;;;;5092342;28;20034;-76
2023/10/26 02:57:27;;;;;;;6.88;2.80;;;12.70;99.90;;;;;;5092013;28;20032;-78
2023/10/26 02:59:53;;;;;;;7.80;3.67;;;12.70;99.90;;;;;;5092291;28;20027;-76
2023/10/26 03:02:19;;;;;;;9.25;3.83;;;12.70;99.90;;;;;;5090975;28;20484;-77
2023/10/26 03:04:45;;;;;;;5.55;2.70;;;12.70;99.90;;;;;;5091895;28;20054;-76
2023/10/26 03:07:11;;;;;;;8.20;3.72;;;12.60;99.90;;;;;;5090787;28;20036;-77
2023/10/26 03:09:37;;;;;;;10.90;3.42;;;12.60;99.90;;;;;;5090618;28;20026;-77
2023/10/26 03:12:03;;;;;;;14.75;3.70;;;12.60;99.90;;;;;;5091813;28;20412;-78
2023/10/26 03:14:29;;;;;;;10.35;3.55;;;12.50;99.90;;;;;;5091852;28;20377;-76
2023/10/26 03:16:55;;;;;;;8.73;3.47;;;12.50;99.90;;;;;;5092049;28;20085;-76
2023/10/26 03:19:20;;;;;;;6.82;4.00;;;12.40;99.90;;;;;;5090918;28;20555;-76
2023/10/26 03:21:46;;;;;;;7.43;3.40;;;12.50;99.90;;;;;;5091856;28;20032;-76
2023/10/26 03:24:12;;;;;;;9.45;3.00;;;12.50;99.90;;;;;;5090687;28;20032;-76
2023/10/26 03:26:38;;;;;;;9.02;3.60;;;12.50;99.90;;;;;;5090157;28;20055;-75
2023/10/26 03:29:04;;;;;;;6.57;2.88;;;12.50;99.90;;;;;;5090373;28;20472;-76
2023/10/26 03:31:31;;;;;;;;;;;12.50;99.90;;;;;;5090871;28;20035;-78
2023/10/26 03:33:56;;;;;;;;;;;12.40;99.90;;;;;;5092086;28;19911;-77
2023/10/26 03:36:22;;;;;;;6.97;2.72;;;12.50;99.90;;;;;;5090376;28;20287;-76
2023/10/26 03:38:50;;;;;;;7.07;2.80;;;12.50;99.90;;;;;;5091476;28;20036;-76
2023/10/26 03:41:16;;;;;;;5.18;2.80;;;12.50;99.90;;;;;;5091656;28;20020;-76
2023/10/26 03:43:41;;;;;;;13.85;3.40;;;12.40;99.90;;;;;;5090185;28;20061;-78
2023/10/26 03:46:07;;;;;;;6.72;3.40;;;12.40;99.90;;;;;;5089726;28;20051;-76
2023/10/26 03:48:35;;;;;;;5.78;3.20;;;12.40;99.90;;;;;;5091474;28;20028;-77
2023/10/26 03:51:01;;;;;;;9.55;3.53;;;12.50;99.90;;;;;;5091408;28;20020;-76
2023/10/26 03:53:28;;;;;;;8.30;3.83;;;12.50;99.90;;;;;;5091295;28;20048;-76
2023/10/26 03:55:55;;;;;;;9.30;3.92;;;12.50;99.90;;;;;;5089904;28;20030;-78
2023/10/26 03:58:20;;;;;;;7.55;2.80;;;12.50;99.90;;;;;;5090072;28;20119;-78
2023/10/26 04:00:47;;;;;;;11.85;3.90;;;12.50;99.90;;;;;;5089905;28;20118;-79
2023/10/26 04:03:14;;;;;;;7.50;3.80;;;12.50;99.90;;;;;;5089989;28;20035;-77
2023/10/26 04:05:39;;;;;;;4.85;3.75;;;12.50;99.90;;;;;;5089658;28;20036;-78
2023/10/26 04:08:07;;;;;;;6.60;3.67;;;12.50;99.90;;;;;;5089672;28;20061;-78
2023/10/26 04:10:34;;;;;;;5.50;2.92;;;12.40;99.90;;;;;;5089279;28;20063;-77
2023/10/26 04:13:00;;;;;;;7.40;3.97;;;12.40;99.90;;;;;;5089709;28;20032;-76
2023/10/26 04:15:25;;;;;;;5.43;3.30;;;12.40;99.90;;;;;;5089551;28;20118;-78
2023/10/26 04:17:51;;;;;;;14.02;3.85;;;12.40;99.90;;;;;;5090888;28;20478;-77
2023/10/26 04:20:17;;;;;;;11.65;3.95;;;12.40;99.90;;;;;;5090734;28;20024;-77
2023/10/26 04:22:43;;;;;;;6.07;3.20;;;12.50;99.90;;;;;;5090679;28;20459;-77
2023/10/26 04:25:08;;;;;;;5.20;3.40;;;12.50;99.90;;;;;;5089434;28;20460;-75
2023/10/26 04:27:35;;;;;;;10.07;3.80;;;12.50;99.90;;;;;;5089346;28;20435;-77
2023/10/26 04:30:01;;;;;;;7.75;3.83;;;12.50;99.90;;;;;;5089368;28;20050;-76
2023/10/26 04:32:27;;;;;;;10.45;4.25;;;12.50;99.90;;;;;;5089111;28;20082;-77
2023/10/26 04:34:53;;;;;;;5.60;3.20;;;12.40;99.90;;;;;;5090391;28;20547;-77
2023/10/26 04:37:19;;;;;;;7.85;3.55;;;12.40;99.90;;;;;;5089179;28;20012;-77
2023/10/26 04:39:45;;;;;;;7.03;3.60;;;12.50;99.90;;;;;;5089332;28;20407;-76
2023/10/26 04:42:12;;;;;;;9.40;4.10;;;12.50;99.90;;;;;;5090429;28;20032;-77
2023/10/26 04:44:39;;;;;;;8.35;4.22;;;12.50;99.90;;;;;;5090272;28;20027;-77
2023/10/26 04:47:05;;;;;;;8.30;4.03;;;12.60;99.90;;;;;;5088995;28;20059;-77
2023/10/26 04:49:30;;;;;;;10.52;4.43;;;12.60;99.90;;;;;;5090304;28;20106;-77
2023/10/26 04:51:56;;;;;;;;;;;12.60;99.90;;;;;;5089107;28;20036;-77
2023/10/26 04:54:21;;;;;;;8.13;3.78;;;12.60;99.90;;;;;;5089948;28;19962;-78
2023/10/26 04:56:47;;;;;;;7.15;3.47;;;12.60;99.90;;;;;;5090152;28;20063;-77
2023/10/26 04:59:13;;;;;;;;;;;12.70;99.90;;;;;;5090039;28;20027;-78
2023/10/26 05:01:38;;;;;;;6.57;3.53;;;12.60;99.90;;;;;;5090102;28;20002;-78
2023/10/26 05:04:05;;;;;;;11.45;3.60;;;12.70;99.90;;;;;;5088646;28;20028;-75
2023/10/26 05:06:30;;;;;;;10.13;3.40;;;12.70;99.90;;;;;;5090006;28;20575;-77
2023/10/26 05:08:56;;;;;;;10.85;4.28;;;12.70;99.90;;;;;;5089701;28;20146;-77
2023/10/26 05:11:22;;;;;;;9.50;3.60;;;12.70;99.90;;;;;;5088489;28;20051;-76
2023/10/26 05:13:52;;;;;;;9.50;3.63;;;12.60;99.90;;;;;;5088143;28;20055;-76
2023/10/26 05:16:18;;;;;;;5.05;3.15;;;12.70;99.90;;;;;;5089985;28;20023;-76
2023/10/26 05:18:43;;;;;;;8.50;3.53;;;12.60;99.90;;;;;;5089624;28;20032;-77
2023/10/26 05:21:09;;;;;;;10.15;3.97;;;12.60;99.90;;;;;;5089699;28;20016;-77
2023/10/26 05:23:34;;;;;;;;;;;12.60;99.90;;;;;;5090402;28;20032;-77
2023/10/26 05:26:01;;;;;;;8.48;3.95;;;12.70;99.90;;;;;;5089989;28;19912;-77
2023/10/26 05:28:27;;;;;;;11.48;3.47;;;12.70;99.90;;;;;;5089931;28;20020;-77
2023/10/26 05:30:53;;;;;;;8.95;3.40;;;12.70;99.90;;;;;;5089352;28;20032;-77
2023/10/26 05:33:18;;;;;;;8.15;3.35;;;12.70;99.90;;;;;;5088193;28;20705;-78
2023/10/26 05:35:44;;;;;;;6.60;3.40;;;12.60;99.90;;;;;;5088296;28;20032;-76
2023/10/26 05:38:10;;;;;;;9.80;3.80;;;12.70;99.90;;;;;;5088280;28;20131;-77
2023/10/26 05:40:36;;;;;;;12.10;3.35;;;12.60;99.90;;;;;;5089627;28;20028;-78
2023/10/26 05:43:02;;;;;;;5.97;2.47;;;12.60;99.90;;;;;;5089179;28;20055;-77
2023/10/26 05:45:29;;;;;;;9.63;3.53;;;12.60;99.90;;;;;;5088251;28;20024;-78
2023/10/26 05:47:55;;;;;;;4.57;3.22;;;12.60;99.90;;;;;;5088216;28;20522;-78
2023/10/26 05:50:21;;;;;;;5.72;3.45;;;12.70;99.90;;;;;;5088077;28;20020;-78
2023/10/26 05:52:47;;;;;;;11.20;5.53;;;12.70;99.90;;;;;;5088160;28;20460;-76
2023/10/26 05:55:14;;;;;;;12.75;8.82;;;12.70;99.90;;;;;;5089527;28;20030;-82
2023/10/26 05:57:39;;;;;;;15.52;9.32;;;12.80;99.90;;;;;;5089599;28;20586;-78
2023/10/26 06:00:06;;;;;;;11.88;6.85;;;12.80;99.90;;;;;;5089317;28;20028;-78
2023/10/26 06:02:32;;;;;;;10.07;5.95;;;12.80;99.90;;;;;;5088118;28;20028;-77
2023/10/26 06:04:58;;;;;;;8.48;5.47;;;12.90;99.90;;;;;;5089453;28;20099;-77
2023/10/26 06:07:24;;;;;;;9.05;5.13;;;12.90;99.90;;;;;;5089263;28;20165;-78
2023/10/26 06:09:50;;;;;;;10.82;4.85;;;13.00;99.90;;;;;;5087705;28;20035;-79
2023/10/26 06:12:16;;;;;;;;;;;13.10;99.90;;;;;;5093054;28;20048;-77
2023/10/26 06:14:41;;;;;;;5.87;4.20;;;13.10;99.90;;;;;;5091442;28;19996;-76
2023/10/26 06:17:07;;;;;;;;;;;13.10;99.90;;;;;;5093702;28;20730;-77
2023/10/26 06:19:34;;;;;;;7.45;4.78;;;13.10;99.90;;;;;;5091753;28;20387;-77
2023/10/26 06:21:59;;;;;;;7.53;3.80;;;13.20;99.90;;;;;;5093075;28;20026;-81
2023/10/26 06:24:26;;;;;;;6.97;3.95;;;13.20;99.90;;;;;;5092978;28;20032;-77
2023/10/26 06:26:51;;;;;;;8.45;4.53;;;13.30;99.90;;;;;;5091732;28;20085;-78
2023/10/26 06:29:17;;;;;;;9.40;4.30;;;13.30;99.90;;;;;;5091817;28;20546;-78
2023/10/26 06:31:44;;;;;;;8.80;3.92;;;13.30;99.90;;;;;;5093007;28;20103;-78
2023/10/26 06:34:10;;;;;;;6.68;3.40;;;13.40;99.90;;;;;;5091428;28;20035;-78
2023/10/26 06:36:35;;;;;;;5.03;3.30;;;13.40;99.90;;;;;;5091644;28;20103;-78
2023/10/26 06:39:02;;;;;;;7.47;3.63;;;13.50;99.90;;;;;;5091232;28;20599;-78
2023/10/26 06:41:28;;;;;;;7.25;4.05;;;13.50;99.90;;;;;;5092744;28;20103;-80
2023/10/26 06:43:55;;;;;;;19.60;4.95;;;13.60;99.90;;;;;;5091400;28;20123;-79
2023/10/26 06:46:21;;;;;;;8.45;3.95;;;13.70;99.90;;;;;;5091318;28;20020;-79
2023/10/26 06:48:47;;;;;;;8.77;4.05;;;13.70;99.90;;;;;;5090997;28;20024;-79
2023/10/26 06:51:13;;;;;;;6.28;4.00;;;13.70;99.90;;;;;;5090799;28;20016;-80
2023/10/26 06:53:38;;;;;;;7.82;4.38;;;13.80;99.90;;;;;;5072177;28;20040;-80
2023/10/26 06:56:12;;;;;;;22.90;13.82;;;13.80;99.90;;;;;;5071013;28;20035;-79
2023/10/26 06:58:39;;;;;;;18.13;8.52;;;13.90;99.90;;;;;;5071203;28;20044;-78
2023/10/26 07:01:07;;;;;;;11.18;6.13;;;14.00;99.90;;;;;;5070973;28;20130;-77
2023/10/26 07:03:32;;;;;;;10.60;6.03;;;14.00;99.90;;;;;;5070717;28;20043;-79
2023/10/26 07:06:07;;;;;;;9.05;4.97;;;14.20;99.90;;;;;;5071846;28;20405;-77
2023/10/26 07:08:36;;;;;;;9.57;4.00;;;14.20;99.90;;;;;;5084159;28;20039;-78
2023/10/26 07:11:08;;;;;;;15.68;5.63;;;14.30;99.90;;;;;;5092073;28;20055;-78
2023/10/26 07:13:34;;;;;;;7.88;3.60;;;14.30;99.90;;;;;;5091878;28;20078;-78
2023/10/26 07:16:00;;;;;;;8.25;4.18;;;14.40;99.90;;;;;;5090740;28;20020;-78
2023/10/26 07:18:26;;;;;;;7.38;4.03;;;14.30;99.90;;;;;;5090738;28;20055;-78
2023/10/26 07:20:52;;;;;;;6.93;3.67;;;14.30;99.90;;;;;;5090556;28;20038;-78
2023/10/26 07:23:18;;;;;;;8.27;4.00;;;14.40;99.90;;;;;;5090034;28;20093;-77
2023/10/26 07:25:44;;;;;;;7.18;3.42;;;14.40;99.90;;;;;;5090121;28;20032;-77
2023/10/26 07:28:11;;;;;;;8.82;3.47;;;14.40;99.90;;;;;;5090092;28;20039;-78
2023/10/26 07:30:40;;;;;;;7.75;3.28;;;14.50;99.90;;;;;;5091827;28;20099;-79
2023/10/26 07:33:06;;;;;;;6.65;3.08;;;14.50;99.90;;;;;;5090044;28;20071;-78
2023/10/26 07:35:38;;;;;;;6.53;3.65;;;14.50;99.90;;;;;;5086652;28;20086;-78
2023/10/26 07:38:04;;;;;;;11.13;4.07;;;14.50;99.90;;;;;;5083696;28;20032;-79
2023/10/26 07:40:30;;;;;;;13.77;5.32;;;14.60;99.90;;;;;;5087256;28;20373;-79
2023/10/26 07:42:56;;;;;;;14.90;6.00;;;14.70;99.90;;;;;;5090812;28;20106;-77
2023/10/26 07:45:21;;;;;;;11.38;5.75;;;14.80;99.90;;;;;;5089839;28;20044;-78
2023/10/26 07:47:47;;;;;;;13.50;6.90;;;14.90;99.90;;;;;;5090207;28;20032;-78
2023/10/26 07:50:16;;;;;;;13.05;6.93;;;15.00;99.90;;;;;;5089970;28;20020;-78
2023/10/26 07:52:42;;;;;;;11.02;6.22;;;15.20;99.90;;;;;;5090922;28;20085;-79
2023/10/26 07:55:08;;;;;;;11.80;6.03;;;15.30;99.90;;;;;;5089810;28;20028;-78
2023/10/26 07:57:33;;;;;;;12.90;7.00;;;15.30;99.90;;;;;;5090866;28;20024;-78
2023/10/26 07:59:59;;;;;;;15.90;7.03;;;15.40;99.90;;;;;;5090711;28;20096;-78
2023/10/26 08:02:25;;;;;;;10.13;6.25;;;15.40;99.90;;;;;;5089746;28;20024;-80
2023/10/26 08:04:51;;;;;;;11.63;5.60;;;15.40;99.90;;;;;;5089958;28;20368;-78
2023/10/26 08:07:16;;;;;;;10.65;4.70;;;15.30;99.90;;;;;;5089430;28;20020;-79
2023/10/26 08:09:42;;;;;;;11.55;4.65;;;15.30;99.90;;;;;;5090854;28;20119;-77
2023/10/26 08:12:10;;;;;;;8.05;3.65;;;15.40;99.90;;;;;;5089152;28;20044;-77
2023/10/26 08:14:36;;;;;;;8.45;3.63;;;15.40;99.90;;;;;;5090930;28;20019;-79
2023/10/26 08:17:01;;;;;;;7.93;3.72;;;15.50;99.90;;;;;;5090851;28;20035;-78
2023/10/26 08:19:27;;;;;;;11.95;4.03;;;15.60;99.90;;;;;;5089832;28;20027;-78
2023/10/26 08:21:53;;;;;;;6.82;2.38;;;15.60;99.90;;;;;;5089434;28;20035;-78
2023/10/26 08:24:19;;;;;;;5.15;2.30;;;15.70;99.90;;;;;;5090536;28;20024;-78
2023/10/26 08:26:44;;;;;;;7.68;3.03;;;15.70;99.90;;;;;;5089262;28;20028;-76
2023/10/26 08:29:10;;;;;;;10.68;5.28;;;15.70;99.90;;;;;;5089379;28;20031;-77
2023/10/26 08:31:36;;;;;;;8.57;5.43;;;15.70;99.90;;;;;;5090645;28;20031;-78
2023/10/26 08:34:02;;;;;;;13.07;8.00;;;15.70;99.90;;;;;;5088459;28;20127;-78
2023/10/26 08:36:27;;;;;;;10.63;6.10;;;15.80;99.90;;;;;;5089189;28;20511;-78
2023/10/26 08:38:53;;;;;;;13.88;7.13;;;15.70;99.90;;;;;;5089224;28;20081;-79
2023/10/26 08:41:19;;;;;;;10.20;5.90;;;15.70;99.90;;;;;;5090360;28;20028;-77
2023/10/26 08:43:44;;;;;;;6.22;4.40;;;15.60;99.90;;;;;;5090216;28;20021;-78
2023/10/26 08:46:11;;;;;;;9.43;3.80;;;15.60;99.90;;;;;;5088974;28;20028;-77
2023/10/26 08:48:39;;;;;;;7.35;4.22;;;15.50;99.90;;;;;;5090441;28;20012;-78
2023/10/26 08:51:05;;;;;;;9.82;4.93;;;15.50;99.90;;;;;;5090269;28;20024;-78
2023/10/26 08:53:34;;;;;;;9.23;3.42;;;15.60;99.90;;;;;;5088887;28;20082;-79
2023/10/26 08:56:00;;;;;;;9.73;3.55;;;15.70;99.90;;;;;;5088825;28;20105;-78
2023/10/26 08:58:26;;;;;;;6.60;2.60;;;15.80;99.90;;;;;;5088776;28;20118;-77
2023/10/26 09:00:52;;;;;;;9.68;2.65;;;15.90;99.90;;;;;;5088809;28;20119;-78
2023/10/26 09:03:18;;;;;;;7.13;2.97;;;16.00;99.90;;;;;;5088841;28;20365;-78
2023/10/26 09:05:55;;;;;;;6.78;2.75;;;16.10;99.90;;;;;;5088759;28;20590;-79
2023/10/26 09:08:23;;;;;;;8.38;3.10;;;16.20;99.90;;;;;;5085465;28;20036;-78
2023/10/26 09:10:50;;;;;;;4.95;2.53;;;16.20;99.90;;;;;;5088065;28;20074;-79
2023/10/26 09:13:27;;;;;;;8.07;3.08;;;16.20;99.90;;;;;;5088667;28;20032;-77
2023/10/26 09:15:57;;;;;;;10.68;3.50;;;16.30;99.90;;;;;;5088401;28;20036;-78
2023/10/26 09:18:24;;;;;;;7.15;2.80;;;16.40;99.90;;;;;;5089721;28;20043;-77
2023/10/26 09:21:07;;;;;;;7.00;2.88;;;16.40;99.90;;;;;;5089596;28;20568;-79
2023/10/26 09:23:40;;;;;;;7.40;3.05;;;16.30;99.90;;;;;;5084534;28;20059;-77
2023/10/26 09:26:08;;;;;;;8.07;2.47;;;16.40;99.90;;;;;;5070125;28;20024;-78
2023/10/26 09:28:51;;;;;;;5.25;1.88;;;16.40;99.90;;;;;;5069857;28;20087;-78
2023/10/26 09:31:17;;;;;;;8.63;2.67;;;16.40;99.90;;;;;;5071476;28;20477;-78
2023/10/26 09:33:44;;;;;;;6.68;2.17;;;16.40;99.90;;;;;;5080377;28;20032;-78
2023/10/26 09:36:12;;;;;;;5.68;2.30;;;16.50;99.90;;;;;;5068207;28;20029;-78
2023/10/26 09:38:39;;;;;;;9.07;2.10;;;16.50;99.90;;;;;;5069449;28;20064;-78
2023/10/26 09:41:13;;;;;;;5.78;2.15;;;16.50;99.90;;;;;;5070386;28;20095;-79
2023/10/26 09:43:42;;;;;;;7.55;2.88;;;16.50;99.90;;;;;;5069399;28;20036;-78
2023/10/26 09:46:10;;;;;;;3.55;1.80;;;16.50;99.90;;;;;;5072940;28;20021;-79
2023/10/26 09:48:35;;;;;;;9.57;1.83;;;16.40;99.90;;;;;;5073512;28;20103;-80
2023/10/26 09:51:03;;;;;;;9.13;1.70;;;16.40;99.90;;;;;;5072120;28;20166;-78
2023/10/26 09:53:38;;;;;;;5.43;2.35;;;16.40;99.90;;;;;;5073309;28;20499;-79
2023/10/26 09:56:06;;;;;;;8.63;2.10;;;16.40;99.90;;;;;;5071993;28;20031;-78
2023/10/26 09:58:41;;;;;;;5.35;1.70;;;16.30;99.90;;;;;;5071992;28;20514;-78
2023/10/26 10:01:39;;;;;;;6.43;2.33;;;16.40;99.90;;;;;;5071950;28;20063;-80
2023/10/26 10:04:07;;;;;;;7.07;2.50;;;16.30;99.90;;;;;;5079083;28;20035;-77
2023/10/26 10:06:58;;;;;;;7.38;2.75;;;16.30;99.90;;;;;;5092065;28;20051;-78
2023/10/26 10:09:28;;;;;;;7.43;2.42;;;16.30;99.90;;;;;;5089071;28;20032;-77
2023/10/26 10:12:06;;;;;;;6.38;2.67;;;16.20;99.90;;;;;;5088462;28;20071;-80
2023/10/26 10:14:47;;;;;;;9.40;2.40;;;16.20;99.90;;;;;;5085993;28;20039;-80
2023/10/26 10:17:13;;;;;;;7.00;2.28;;;16.10;99.90;;;;;;5090985;28;20062;-78
2023/10/26 10:19:46;;;;;;;7.70;3.08;;;16.10;99.90;;;;;;5090972;28;20037;-79
2023/10/26 10:22:33;;;;;;;9.30;3.72;;;16.10;99.90;;;;;;5093012;28;20496;-78
2023/10/26 10:24:59;;;;;;;15.05;3.35;;;16.20;99.90;;;;;;5091951;28;20511;-78
2023/10/26 10:27:25;;;;;;;6.15;2.65;;;16.20;99.90;;;;;;5091569;28;20028;-77
2023/10/26 10:29:58;;;;;;;5.53;2.78;;;16.20;99.90;;;;;;5092314;28;20031;-76
2023/10/26 10:32:43;;;;;;;6.35;3.10;;;16.20;99.90;;;;;;5088455;28;20047;-79
2023/10/26 10:35:21;;;;;;;9.20;2.40;;;16.20;99.90;;;;;;5091608;28;20488;-79
2023/10/26 10:38:18;;;;;;;5.55;2.15;;;16.10;99.90;;;;;;5091582;28;20073;-78
2023/10/26 10:40:59;;;;;;;5.93;1.83;;;16.20;99.90;;;;;;5090758;28;20640;-79
2023/10/26 10:43:31;;;;;;;6.85;2.03;;;16.30;99.90;;;;;;5092761;28;20031;-79
2023/10/26 10:46:12;;;;;;;6.32;1.70;;;16.40;99.90;;;;;;5091401;28;20027;-78
2023/10/26 10:48:58;;;;;;;15.55;2.72;;;16.50;99.90;;;;;;5090262;28;20483;-77
2023/10/26 10:51:41;;;;;;;10.45;2.13;;;16.60;99.90;;;;;;5080236;28;20493;-77
2023/10/26 10:54:11;;;;;;;6.22;2.33;;;16.80;99.90;;;;;;5072121;28;20068;-79
2023/10/26 10:56:46;;;;;;;6.65;2.20;;;16.90;99.90;;;;;;5071326;28;20031;-79
2023/10/26 10:59:15;;;;;;;7.00;1.67;;;16.90;99.90;;;;;;5071773;28;20166;-76
2023/10/26 11:01:41;;;;;;;13.95;3.33;;;17.00;99.90;;;;;;5071775;28;20099;-78
2023/10/26 11:04:10;;;;;;;7.70;2.35;;;16.90;99.90;;;;;;5070482;28;20182;-78
2023/10/26 11:06:46;;;;;;;9.55;1.98;;;16.90;99.90;;;;;;5070485;28;20056;-78
2023/10/26 11:09:37;;;;;;;9.93;2.88;;;17.00;99.90;;;;;;5070247;28;20241;-77
2023/10/26 11:12:12;;;;;;;8.18;2.00;;;17.00;99.90;;;;;;5070387;28;20052;-79
2023/10/26 11:14:51;;;;;;;7.20;1.60;;;17.00;99.90;;;;;;5070091;28;20040;-78
2023/10/26 11:17:23;;;;;;;5.50;1.77;;;17.00;99.90;;;;;;5070496;28;20028;-76
2023/10/26 11:19:49;;;;;;;6.00;1.65;;;17.00;99.90;;;;;;5071767;28;20035;-77
2023/10/26 11:22:17;;;;;;;6.07;1.48;;;17.00;99.90;;;;;;5070151;28;20025;-76
2023/10/26 11:24:44;;;;;;;4.15;1.85;;;17.00;99.90;;;;;;5079039;28;20472;-77
2023/10/26 11:27:13;;;;;;;2.88;1.30;;;17.10;99.90;;;;;;5077080;28;20112;-77
2023/10/26 11:29:40;;;;;;;3.38;1.60;;;17.20;99.90;;;;;;5071507;28;20031;-77
2023/10/26 11:32:18;;;;;;;8.88;1.70;;;17.30;99.90;;;;;;5071228;28;20016;-78
2023/10/26 11:35:06;;;;;;;3.85;1.33;;;17.40;99.90;;;;;;5070106;28;20028;-77
2023/10/26 11:37:32;;;;;;;4.80;1.45;;;17.30;99.90;;;;;;5076844;28;20119;-77
2023/10/26 11:39:58;;;;;;;4.32;1.08;;;17.30;99.90;;;;;;5081850;28;20074;-78
2023/10/26 11:42:46;;;;;;;8.73;1.42;;;17.30;99.90;;;;;;5089709;28;20438;-77
2023/10/26 11:45:15;;;;;;;8.75;1.45;;;17.20;99.90;;;;;;5090165;28;20027;-80
2023/10/26 11:47:54;;;;;;;8.82;1.27;;;17.10;99.90;;;;;;5091332;28;20020;-78
2023/10/26 11:50:28;;;;;;;7.03;1.38;;;17.00;99.90;;;;;;5091166;28;20434;-77
2023/10/26 11:52:57;;;;;;;6.13;1.23;;;16.90;99.90;;;;;;5089767;28;20044;-79
2023/10/26 11:55:24;;;;;;;8.40;1.63;;;16.90;99.90;;;;;;5091199;28;20024;-78
2023/10/26 11:57:51;;;;;;;4.90;1.48;;;16.90;99.90;;;;;;5089602;28;20046;-76
2023/10/26 12:00:18;;;;;;;5.15;1.27;;;16.90;99.90;;;;;;5089377;28;20020;-77
2023/10/26 12:02:44;;;;;;;7.22;1.23;;;16.90;99.90;;;;;;5089253;28;20050;-78
2023/10/26 12:05:18;;;;;;;4.40;1.20;;;16.90;99.90;;;;;;5089162;28;20545;-80
2023/10/26 12:07:45;;;;;;;5.95;2.08;;;16.90;99.90;;;;;;5089734;28;20028;-77
2023/10/26 12:10:11;;;;;;;4.95;1.15;;;16.90;99.90;;;;;;5090944;28;20107;-78
2023/10/26 12:12:37;;;;;;;4.60;1.60;;;17.00;99.90;;;;;;5090497;28;20044;-76
2023/10/26 12:15:04;;;;;;;4.70;1.52;;;17.00;99.90;;;;;;5090743;28;20020;-77
2023/10/26 12:17:30;;;;;;;5.13;0.90;;;17.00;99.90;;;;;;5089324;28;20020;-76
2023/10/26 12:19:55;;;;;;;3.22;1.13;;;17.00;99.90;;;;;;5086634;28;20396;-78
2023/10/26 12:22:21;;;;;;;4.05;1.10;;;17.10;99.90;;;;;;5070211;28;20519;-77
2023/10/26 12:24:47;;;;;;;4.05;0.77;;;17.30;99.90;;;;;;5069376;28;20021;-77
2023/10/26 12:27:16;;;;;;;4.30;1.05;;;17.30;99.90;;;;;;5084467;28;20123;-78
2023/10/26 12:29:43;;;;;;;4.05;1.10;;;17.50;99.90;;;;;;5089055;28;20017;-77
2023/10/26 12:32:09;;;;;;;4.95;1.15;;;17.60;99.90;;;;;;5089124;28;20455;-77
2023/10/26 12:34:35;;;;;;;4.72;1.23;;;17.80;99.90;;;;;;5088902;28;20028;-78
2023/10/26 12:37:00;;;;;;;3.70;0.82;;;17.90;99.90;;;;;;5090545;28;20054;-78
2023/10/26 12:39:26;;;;;;;3.95;0.77;;;18.00;99.90;;;;;;5090325;28;20036;-78
2023/10/26 12:41:51;;;;;;;3.90;1.10;;;18.00;99.90;;;;;;5090032;28;20034;-77
2023/10/26 12:44:20;;;;;;;3.30;0.85;;;18.00;99.90;;;;;;5089016;28;20020;-76
2023/10/26 12:46:46;;;;;;;3.45;0.70;;;18.10;99.90;;;;;;5088896;28;20039;-78
2023/10/26 12:49:11;;;;;;;3.72;0.75;;;18.10;99.90;;;;;;5090268;28;20111;-78
2023/10/26 12:51:37;;;;;;;3.60;0.80;;;18.10;99.90;;;;;;5085049;28;20032;-77